sensor_id;sensor_type;location;lat;lon;timestamp;temperature;humidity
19966;DHT22;10144;50.874;4.762;2023-04-24T00:01:44;9.50;99.90
19966;DHT22;10144;50.874;4.762;2023-04-24T00:04:12;9.40;99.90
19966;DHT22;10144;50.874;4.762;2023-04-24T00:06:39;9.40;99.90
19966;DHT22;10144;50.874;4.762;2023-04-24T00:09:11;9.50;99.90
19966;DHT22;10144;50.874;4.762;2023-04-24T00:11:36;9.50;99.90
19966;DHT22;10144;50.874;4.762;2023-04-24T00:14:02;9.50;99.90
19966;DHT22;10144;50.874;4.762;2023-04-24T00:16:28;9.50;99.90
19966;DHT22;10144;50.874;4.762;2023-04-24T00:18:55;9.40;99.90
19966;DHT22;10144;50.874;4.762;2023-04-24T00:21:27;9.50;99.90
19966;DHT22;10144;50.874;4.762;2023-04-24T00:23:53;9.50;99.90
19966;DHT22;10144;50.874;4.762;2023-04-24T00:26:18;9.50;99.90
19966;DHT22;10144;50.874;4.762;2023-04-24T00:28:46;9.60;99.90
19966;DHT22;10144;50.874;4.762;2023-04-24T00:31:13;9.60;99.90
19966;DHT22;10144;50.874;4.762;2023-04-24T00:33:40;9.60;99.90
19966;DHT22;10144;50.874;4.762;2023-04-24T00:36:07;9.70;99.90
19966;DHT22;10144;50.874;4.762;2023-04-24T00:38:33;9.60;99.90
19966;DHT22;10144;50.874;4.762;2023-04-24T00:41:00;9.50;99.90
19966;DHT22;10144;50.874;4.762;2023-04-24T00:43:27;9.50;99.90
19966;DHT22;10144;50.874;4.762;2023-04-24T00:45:53;9.50;99.90
19966;DHT22;10144;50.874;4.762;2023-04-24T00:48:20;9.60;99.90
19966;DHT22;10144;50.874;4.762;2023-04-24T00:50:48;9.60;99.90
19966;DHT22;10144;50.874;4.762;2023-04-24T00:53:14;9.50;99.90
19966;DHT22;10144;50.874;4.762;2023-04-24T00:55:40;9.40;99.90
19966;DHT22;10144;50.874;4.762;2023-04-24T00:58:12;9.40;99.90
19966;DHT22;10144;50.874;4.762;2023-04-24T01:00:38;9.40;99.90
19966;DHT22;10144;50.874;4.762;2023-04-24T01:03:05;9.50;99.90
19966;DHT22;10144;50.874;4.762;2023-04-24T01:05:31;9.50;99.90
19966;DHT22;10144;50.874;4.762;2023-04-24T01:08:00;9.50;99.90
19966;DHT22;10144;50.874;4.762;2023-04-24T01:10:27;9.50;99.90
19966;DHT22;10144;50.874;4.762;2023-04-24T01:12:55;9.50;99.90
19966;DHT22;10144;50.874;4.762;2023-04-24T01:15:24;9.50;99.90
19966;DHT22;10144;50.874;4.762;2023-04-24T01:17:51;9.40;99.90
19966;DHT22;10144;50.874;4.762;2023-04-24T01:20:20;9.50;99.90
19966;DHT22;10144;50.874;4.762;2023-04-24T01:22:48;9.40;99.90
19966;DHT22;10144;50.874;4.762;2023-04-24T01:25:17;9.40;99.90
19966;DHT22;10144;50.874;4.762;2023-04-24T01:27:44;9.40;99.90
19966;DHT22;10144;50.874;4.762;2023-04-24T01:30:11;9.40;99.90
19966;DHT22;10144;50.874;4.762;2023-04-24T01:32:39;9.30;99.90
19966;DHT22;10144;50.874;4.762;2023-04-24T01:35:11;9.30;99.90
19966;DHT22;10144;50.874;4.762;2023-04-24T01:37:40;9.30;99.90
19966;DHT22;10144;50.874;4.762;2023-04-24T01:40:12;9.40;99.90
19966;DHT22;10144;50.874;4.762;2023-04-24T01:42:41;9.40;99.90
19966;DHT22;10144;50.874;4.762;2023-04-24T01:45:10;9.40;99.90
19966;DHT22;10144;50.874;4.762;2023-04-24T01:47:38;9.40;99.90
19966;DHT22;10144;50.874;4.762;2023-04-24T01:50:10;9.30;99.90
19966;DHT22;10144;50.874;4.762;2023-04-24T01:52:39;9.30;99.90
19966;DHT22;10144;50.874;4.762;2023-04-24T01:55:06;9.30;99.90
19966;DHT22;10144;50.874;4.762;2023-04-24T01:57:35;9.20;99.90
19966;DHT22;10144;50.874;4.762;2023-04-24T02:00:04;9.00;99.90
19966;DHT22;10144;50.874;4.762;2023-04-24T02:02:33;8.90;99.90
19966;DHT22;10144;50.874;4.762;2023-04-24T02:05:05;8.90;99.90
19966;DHT22;10144;50.874;4.762;2023-04-24T02:07:37;8.90;99.90
19966;DHT22;10144;50.874;4.762;2023-04-24T02:10:06;8.80;99.90
19966;DHT22;10144;50.874;4.762;2023-04-24T02:12:35;8.70;99.90
19966;DHT22;10144;50.874;4.762;2023-04-24T02:15:07;8.70;99.90
19966;DHT22;10144;50.874;4.762;2023-04-24T02:17:33;8.80;99.90
19966;DHT22;10144;50.874;4.762;2023-04-24T02:19:58;8.80;99.90
19966;DHT22;10144;50.874;4.762;2023-04-24T02:22:27;8.80;99.90
19966;DHT22;10144;50.874;4.762;2023-04-24T02:24:56;8.70;99.90
19966;DHT22;10144;50.874;4.762;2023-04-24T02:27:22;8.80;99.90
19966;DHT22;10144;50.874;4.762;2023-04-24T02:29:48;8.70;99.90
19966;DHT22;10144;50.874;4.762;2023-04-24T02:32:14;8.70;99.90
19966;DHT22;10144;50.874;4.762;2023-04-24T02:34:46;8.80;99.90
19966;DHT22;10144;50.874;4.762;2023-04-24T02:37:16;8.80;99.90
19966;DHT22;10144;50.874;4.762;2023-04-24T02:39:45;8.60;99.90
19966;DHT22;10144;50.874;4.762;2023-04-24T02:42:14;8.60;99.90
19966;DHT22;10144;50.874;4.762;2023-04-24T02:44:40;8.60;99.90
19966;DHT22;10144;50.874;4.762;2023-04-24T02:47:13;8.50;99.90
19966;DHT22;10144;50.874;4.762;2023-04-24T02:49:39;8.50;99.90
19966;DHT22;10144;50.874;4.762;2023-04-24T02:52:08;8.50;99.90
19966;DHT22;10144;50.874;4.762;2023-04-24T02:54:34;8.50;99.90
19966;DHT22;10144;50.874;4.762;2023-04-24T02:57:00;8.60;99.90
19966;DHT22;10144;50.874;4.762;2023-04-24T02:59:29;8.60;99.90
19966;DHT22;10144;50.874;4.762;2023-04-24T03:01:58;8.50;99.90
19966;DHT22;10144;50.874;4.762;2023-04-24T03:04:24;8.50;99.90
19966;DHT22;10144;50.874;4.762;2023-04-24T03:06:53;8.40;99.90
19966;DHT22;10144;50.874;4.762;2023-04-24T03:09:22;8.50;99.90
19966;DHT22;10144;50.874;4.762;2023-04-24T03:11:48;8.50;99.90
19966;DHT22;10144;50.874;4.762;2023-04-24T03:14:15;8.50;99.90
19966;DHT22;10144;50.874;4.762;2023-04-24T03:16:40;8.60;99.90
19966;DHT22;10144;50.874;4.762;2023-04-24T03:19:12;8.70;99.90
19966;DHT22;10144;50.874;4.762;2023-04-24T03:21:41;8.70;99.90
19966;DHT22;10144;50.874;4.762;2023-04-24T03:24:10;8.70;99.90
19966;DHT22;10144;50.874;4.762;2023-04-24T03:26:39;8.70;99.90
19966;DHT22;10144;50.874;4.762;2023-04-24T03:29:08;8.70;99.90
19966;DHT22;10144;50.874;4.762;2023-04-24T03:31:34;8.70;99.90
19966;DHT22;10144;50.874;4.762;2023-04-24T03:34:00;8.70;99.90
19966;DHT22;10144;50.874;4.762;2023-04-24T03:36:36;8.60;99.90
19966;DHT22;10144;50.874;4.762;2023-04-24T03:39:04;8.50;99.90
19966;DHT22;10144;50.874;4.762;2023-04-24T03:41:30;8.50;99.90
19966;DHT22;10144;50.874;4.762;2023-04-24T03:43:59;8.60;99.90
19966;DHT22;10144;50.874;4.762;2023-04-24T03:46:31;8.60;99.90
19966;DHT22;10144;50.874;4.762;2023-04-24T03:49:00;8.50;99.90
19966;DHT22;10144;50.874;4.762;2023-04-24T03:51:29;8.50;99.90
19966;DHT22;10144;50.874;4.762;2023-04-24T03:54:33;8.50;99.90
19966;DHT22;10144;50.874;4.762;2023-04-24T03:57:00;8.50;99.90
19966;DHT22;10144;50.874;4.762;2023-04-24T03:59:32;8.40;99.90
19966;DHT22;10144;50.874;4.762;2023-04-24T04:02:01;8.40;99.90
19966;DHT22;10144;50.874;4.762;2023-04-24T04:04:27;8.40;99.90
19966;DHT22;10144;50.874;4.762;2023-04-24T04:06:56;8.30;99.90
19966;DHT22;10144;50.874;4.762;2023-04-24T04:09:25;8.40;99.90
19966;DHT22;10144;50.874;4.762;2023-04-24T04:11:57;8.40;99.90
19966;DHT22;10144;50.874;4.762;2023-04-24T04:14:24;8.40;99.90
19966;DHT22;10144;50.874;4.762;2023-04-24T04:16:50;8.40;99.90
19966;DHT22;10144;50.874;4.762;2023-04-24T04:19:16;8.40;99.90
19966;DHT22;10144;50.874;4.762;2023-04-24T04:21:45;8.40;99.90
19966;DHT22;10144;50.874;4.762;2023-04-24T04:24:17;8.30;99.90
19966;DHT22;10144;50.874;4.762;2023-04-24T04:26:43;8.30;99.90
19966;DHT22;10144;50.874;4.762;2023-04-24T04:29:13;8.40;99.90
19966;DHT22;10144;50.874;4.762;2023-04-24T04:31:43;8.40;99.90
19966;DHT22;10144;50.874;4.762;2023-04-24T04:34:09;8.40;99.90
19966;DHT22;10144;50.874;4.762;2023-04-24T04:36:41;8.50;99.90
19966;DHT22;10144;50.874;4.762;2023-04-24T04:39:11;8.50;99.90
19966;DHT22;10144;50.874;4.762;2023-04-24T04:41:38;8.60;99.90
19966;DHT22;10144;50.874;4.762;2023-04-24T04:44:06;8.50;99.90
19966;DHT22;10144;50.874;4.762;2023-04-24T04:46:43;8.50;99.90
19966;DHT22;10144;50.874;4.762;2023-04-24T04:49:11;8.60;99.90
19966;DHT22;10144;50.874;4.762;2023-04-24T04:51:43;8.50;99.90
19966;DHT22;10144;50.874;4.762;2023-04-24T04:54:11;8.50;99.90
19966;DHT22;10144;50.874;4.762;2023-04-24T04:56:56;8.50;99.90
19966;DHT22;10144;50.874;4.762;2023-04-24T04:59:24;8.50;99.90
19966;DHT22;10144;50.874;4.762;2023-04-24T05:01:56;8.30;99.90
19966;DHT22;10144;50.874;4.762;2023-04-24T05:04:23;8.30;99.90
19966;DHT22;10144;50.874;4.762;2023-04-24T05:06:50;8.40;99.90
19966;DHT22;10144;50.874;4.762;2023-04-24T05:09:19;8.30;99.90
19966;DHT22;10144;50.874;4.762;2023-04-24T05:11:51;8.30;99.90
19966;DHT22;10144;50.874;4.762;2023-04-24T05:14:20;8.30;99.90
19966;DHT22;10144;50.874;4.762;2023-04-24T05:16:49;8.30;99.90
19966;DHT22;10144;50.874;4.762;2023-04-24T05:19:15;8.30;99.90
19966;DHT22;10144;50.874;4.762;2023-04-24T05:21:43;8.20;99.90
19966;DHT22;10144;50.874;4.762;2023-04-24T05:24:09;8.10;99.90
19966;DHT22;10144;50.874;4.762;2023-04-24T05:26:37;8.00;99.90
19966;DHT22;10144;50.874;4.762;2023-04-24T05:29:09;8.00;99.90
19966;DHT22;10144;50.874;4.762;2023-04-24T05:31:37;8.00;99.90
19966;DHT22;10144;50.874;4.762;2023-04-24T05:34:03;7.90;99.90
19966;DHT22;10144;50.874;4.762;2023-04-24T05:36:33;8.00;99.90
19966;DHT22;10144;50.874;4.762;2023-04-24T05:39:02;8.00;99.90
19966;DHT22;10144;50.874;4.762;2023-04-24T05:41:32;8.00;99.90
19966;DHT22;10144;50.874;4.762;2023-04-24T05:44:00;8.10;99.90
19966;DHT22;10144;50.874;4.762;2023-04-24T05:46:28;8.00;99.90
19966;DHT22;10144;50.874;4.762;2023-04-24T05:48:57;8.00;99.90
19966;DHT22;10144;50.874;4.762;2023-04-24T05:51:25;8.00;99.90
19966;DHT22;10144;50.874;4.762;2023-04-24T05:53:54;8.00;99.90
19966;DHT22;10144;50.874;4.762;2023-04-24T05:56:23;7.90;99.90
19966;DHT22;10144;50.874;4.762;2023-04-24T05:58:50;7.90;99.90
19966;DHT22;10144;50.874;4.762;2023-04-24T06:01:22;7.90;99.90
19966;DHT22;10144;50.874;4.762;2023-04-24T06:03:54;7.90;99.90
19966;DHT22;10144;50.874;4.762;2023-04-24T06:06:20;7.90;99.90
19966;DHT22;10144;50.874;4.762;2023-04-24T06:08:46;7.90;99.90
19966;DHT22;10144;50.874;4.762;2023-04-24T06:11:12;7.90;99.90
19966;DHT22;10144;50.874;4.762;2023-04-24T06:13:38;8.00;99.90
19966;DHT22;10144;50.874;4.762;2023-04-24T06:16:04;8.00;99.90
19966;DHT22;10144;50.874;4.762;2023-04-24T06:18:29;8.00;99.90
19966;DHT22;10144;50.874;4.762;2023-04-24T06:20:55;8.10;99.90
19966;DHT22;10144;50.874;4.762;2023-04-24T06:23:27;8.10;99.90
19966;DHT22;10144;50.874;4.762;2023-04-24T06:25:56;8.10;99.90
19966;DHT22;10144;50.874;4.762;2023-04-24T06:28:24;8.10;99.90
19966;DHT22;10144;50.874;4.762;2023-04-24T06:30:52;8.10;99.90
19966;DHT22;10144;50.874;4.762;2023-04-24T06:33:21;8.20;99.90
19966;DHT22;10144;50.874;4.762;2023-04-24T06:35:49;8.30;99.90
19966;DHT22;10144;50.874;4.762;2023-04-24T06:38:18;8.30;99.90
19966;DHT22;10144;50.874;4.762;2023-04-24T06:40:45;8.30;99.90
19966;DHT22;10144;50.874;4.762;2023-04-24T06:43:14;8.30;99.90
19966;DHT22;10144;50.874;4.762;2023-04-24T06:45:42;8.20;99.90
19966;DHT22;10144;50.874;4.762;2023-04-24T06:48:09;8.20;99.90
19966;DHT22;10144;50.874;4.762;2023-04-24T06:50:35;8.20;99.90
19966;DHT22;10144;50.874;4.762;2023-04-24T06:53:00;8.20;99.90
19966;DHT22;10144;50.874;4.762;2023-04-24T06:55:26;8.20;99.90
19966;DHT22;10144;50.874;4.762;2023-04-24T06:57:51;8.30;99.90
19966;DHT22;10144;50.874;4.762;2023-04-24T07:00:17;8.40;99.90
19966;DHT22;10144;50.874;4.762;2023-04-24T07:02:43;8.30;99.90
19966;DHT22;10144;50.874;4.762;2023-04-24T07:05:08;8.30;99.90
19966;DHT22;10144;50.874;4.762;2023-04-24T07:07:34;8.30;99.90
19966;DHT22;10144;50.874;4.762;2023-04-24T07:10:03;8.30;99.90
19966;DHT22;10144;50.874;4.762;2023-04-24T07:12:29;8.30;99.90
19966;DHT22;10144;50.874;4.762;2023-04-24T07:14:55;8.30;99.90
19966;DHT22;10144;50.874;4.762;2023-04-24T07:17:20;8.40;99.90
19966;DHT22;10144;50.874;4.762;2023-04-24T07:19:46;8.50;99.90
19966;DHT22;10144;50.874;4.762;2023-04-24T07:22:12;8.60;99.90
19966;DHT22;10144;50.874;4.762;2023-04-24T07:24:46;8.60;99.90
19966;DHT22;10144;50.874;4.762;2023-04-24T07:27:11;8.60;99.90
19966;DHT22;10144;50.874;4.762;2023-04-24T07:29:37;8.60;99.90
19966;DHT22;10144;50.874;4.762;2023-04-24T07:32:03;8.60;99.90
19966;DHT22;10144;50.874;4.762;2023-04-24T07:34:29;8.60;99.90
19966;DHT22;10144;50.874;4.762;2023-04-24T07:36:55;8.60;99.90
19966;DHT22;10144;50.874;4.762;2023-04-24T07:39:21;8.60;99.90
19966;DHT22;10144;50.874;4.762;2023-04-24T07:41:46;8.60;99.90
19966;DHT22;10144;50.874;4.762;2023-04-24T07:44:12;8.60;99.90
19966;DHT22;10144;50.874;4.762;2023-04-24T07:46:37;8.60;99.90
19966;DHT22;10144;50.874;4.762;2023-04-24T07:49:04;8.50;99.90
19966;DHT22;10144;50.874;4.762;2023-04-24T07:51:29;8.50;99.90
19966;DHT22;10144;50.874;4.762;2023-04-24T07:53:56;8.50;99.90
19966;DHT22;10144;50.874;4.762;2023-04-24T07:56:23;8.50;99.90
19966;DHT22;10144;50.874;4.762;2023-04-24T07:58:48;8.50;99.90
19966;DHT22;10144;50.874;4.762;2023-04-24T08:01:14;8.50;99.90
19966;DHT22;10144;50.874;4.762;2023-04-24T08:03:39;8.60;99.90
19966;DHT22;10144;50.874;4.762;2023-04-24T08:06:05;8.60;99.90
19966;DHT22;10144;50.874;4.762;2023-04-24T08:08:31;8.60;99.90
19966;DHT22;10144;50.874;4.762;2023-04-24T08:10:57;8.60;99.90
19966;DHT22;10144;50.874;4.762;2023-04-24T08:13:23;8.70;99.90
19966;DHT22;10144;50.874;4.762;2023-04-24T08:15:49;8.80;99.90
19966;DHT22;10144;50.874;4.762;2023-04-24T08:18:14;9.20;99.90
19966;DHT22;10144;50.874;4.762;2023-04-24T08:20:41;9.40;99.90
19966;DHT22;10144;50.874;4.762;2023-04-24T08:23:07;9.70;99.90
19966;DHT22;10144;50.874;4.762;2023-04-24T08:25:32;10.30;99.90
19966;DHT22;10144;50.874;4.762;2023-04-24T08:28:01;10.40;99.90
19966;DHT22;10144;50.874;4.762;2023-04-24T08:30:27;10.70;99.90
19966;DHT22;10144;50.874;4.762;2023-04-24T08:32:53;10.60;99.90
19966;DHT22;10144;50.874;4.762;2023-04-24T08:35:18;10.20;99.90
19966;DHT22;10144;50.874;4.762;2023-04-24T08:37:44;9.80;99.90
19966;DHT22;10144;50.874;4.762;2023-04-24T08:40:14;9.70;99.90
19966;DHT22;10144;50.874;4.762;2023-04-24T08:42:44;9.50;99.90
19966;DHT22;10144;50.874;4.762;2023-04-24T08:45:11;9.30;99.90
19966;DHT22;10144;50.874;4.762;2023-04-24T08:47:41;9.00;99.90
19966;DHT22;10144;50.874;4.762;2023-04-24T08:50:08;8.90;99.90
19966;DHT22;10144;50.874;4.762;2023-04-24T08:52:35;9.10;99.90
19966;DHT22;10144;50.874;4.762;2023-04-24T08:55:01;9.50;99.90
19966;DHT22;10144;50.874;4.762;2023-04-24T08:57:28;9.70;99.90
19966;DHT22;10144;50.874;4.762;2023-04-24T08:59:56;9.90;99.90
19966;DHT22;10144;50.874;4.762;2023-04-24T09:02:23;10.10;99.90
19966;DHT22;10144;50.874;4.762;2023-04-24T09:04:49;10.20;99.90
19966;DHT22;10144;50.874;4.762;2023-04-24T09:07:16;10.90;99.90
19966;DHT22;10144;50.874;4.762;2023-04-24T09:09:43;11.60;99.90
19966;DHT22;10144;50.874;4.762;2023-04-24T09:12:09;12.00;99.90
19966;DHT22;10144;50.874;4.762;2023-04-24T09:14:36;11.90;99.90
19966;DHT22;10144;50.874;4.762;2023-04-24T09:17:06;11.40;99.90
19966;DHT22;10144;50.874;4.762;2023-04-24T09:19:31;11.10;99.90
19966;DHT22;10144;50.874;4.762;2023-04-24T09:21:57;11.00;99.90
19966;DHT22;10144;50.874;4.762;2023-04-24T09:24:23;11.20;99.90
19966;DHT22;10144;50.874;4.762;2023-04-24T09:26:55;11.00;99.90
19966;DHT22;10144;50.874;4.762;2023-04-24T09:29:22;10.90;99.90
19966;DHT22;10144;50.874;4.762;2023-04-24T09:31:48;11.70;99.90
19966;DHT22;10144;50.874;4.762;2023-04-24T09:34:14;13.60;99.90
19966;DHT22;10144;50.874;4.762;2023-04-24T09:36:42;16.00;99.90
19966;DHT22;10144;50.874;4.762;2023-04-24T09:39:12;17.80;99.90
19966;DHT22;10144;50.874;4.762;2023-04-24T09:41:53;18.70;99.90
19966;DHT22;10144;50.874;4.762;2023-04-24T09:44:20;18.90;99.90
19966;DHT22;10144;50.874;4.762;2023-04-24T09:46:50;18.40;99.90
19966;DHT22;10144;50.874;4.762;2023-04-24T09:49:21;17.90;99.90
19966;DHT22;10144;50.874;4.762;2023-04-24T09:51:47;16.90;99.90
19966;DHT22;10144;50.874;4.762;2023-04-24T09:54:21;15.80;99.90
19966;DHT22;10144;50.874;4.762;2023-04-24T09:56:50;14.80;99.90
19966;DHT22;10144;50.874;4.762;2023-04-24T09:59:18;13.80;99.90
19966;DHT22;10144;50.874;4.762;2023-04-24T10:01:44;13.50;99.90
19966;DHT22;10144;50.874;4.762;2023-04-24T10:06:47;13.00;99.90
19966;DHT22;10144;50.874;4.762;2023-04-24T10:09:15;14.90;99.90
19966;DHT22;10144;50.874;4.762;2023-04-24T10:11:42;16.50;99.90
19966;DHT22;10144;50.874;4.762;2023-04-24T10:14:12;17.90;99.90
19966;DHT22;10144;50.874;4.762;2023-04-24T10:16:39;17.60;99.90
19966;DHT22;10144;50.874;4.762;2023-04-24T10:19:06;16.20;99.90
19966;DHT22;10144;50.874;4.762;2023-04-24T10:21:32;15.70;99.90
19966;DHT22;10144;50.874;4.762;2023-04-24T10:23:59;15.40;99.90
19966;DHT22;10144;50.874;4.762;2023-04-24T10:26:26;14.80;99.90
19966;DHT22;10144;50.874;4.762;2023-04-24T10:28:54;13.90;99.90
19966;DHT22;10144;50.874;4.762;2023-04-24T10:31:22;13.00;99.90
19966;DHT22;10144;50.874;4.762;2023-04-24T10:33:50;13.00;99.90
19966;DHT22;10144;50.874;4.762;2023-04-24T10:36:17;12.90;99.90
19966;DHT22;10144;50.874;4.762;2023-04-24T10:38:45;13.30;99.90
19966;DHT22;10144;50.874;4.762;2023-04-24T10:44:41;15.90;99.90
19966;DHT22;10144;50.874;4.762;2023-04-24T10:57:32;14.20;99.90
19966;DHT22;10144;50.874;4.762;2023-04-24T11:03:29;13.80;99.90
19966;DHT22;10144;50.874;4.762;2023-04-24T11:09:20;13.00;99.90
19966;DHT22;10144;50.874;4.762;2023-04-24T11:15:11;12.10;99.90
19966;DHT22;10144;50.874;4.762;2023-04-24T11:21:10;11.90;99.90
19966;DHT22;10144;50.874;4.762;2023-04-24T11:27:06;12.20;99.90
19966;DHT22;10144;50.874;4.762;2023-04-24T11:33:05;12.70;99.90
19966;DHT22;10144;50.874;4.762;2023-04-24T11:38:53;12.60;99.90
19966;DHT22;10144;50.874;4.762;2023-04-24T11:44:42;12.10;99.90
19966;DHT22;10144;50.874;4.762;2023-04-24T11:50:30;12.70;99.90
19966;DHT22;10144;50.874;4.762;2023-04-24T11:56:29;13.40;99.90
19966;DHT22;10144;50.874;4.762;2023-04-24T12:02:25;13.20;99.90
19966;DHT22;10144;50.874;4.762;2023-04-24T12:08:29;13.90;99.90
19966;DHT22;10144;50.874;4.762;2023-04-24T12:17:32;16.50;99.90
19966;DHT22;10144;50.874;4.762;2023-04-24T12:20:05;16.20;99.90
19966;DHT22;10144;50.874;4.762;2023-04-24T12:22:48;16.20;99.90
19966;DHT22;10144;50.874;4.762;2023-04-24T12:25:18;15.30;99.90
19966;DHT22;10144;50.874;4.762;2023-04-24T12:27:45;15.20;99.90
19966;DHT22;10144;50.874;4.762;2023-04-24T12:30:15;16.00;99.90
19966;DHT22;10144;50.874;4.762;2023-04-24T12:32:47;15.40;99.90
19966;DHT22;10144;50.874;4.762;2023-04-24T12:35:13;14.50;99.90
19966;DHT22;10144;50.874;4.762;2023-04-24T12:37:42;14.20;99.90
19966;DHT22;10144;50.874;4.762;2023-04-24T12:40:12;14.20;99.90
19966;DHT22;10144;50.874;4.762;2023-04-24T12:42:48;14.50;99.90
19966;DHT22;10144;50.874;4.762;2023-04-24T12:45:15;15.70;99.90
19966;DHT22;10144;50.874;4.762;2023-04-24T12:47:42;16.10;99.90
19966;DHT22;10144;50.874;4.762;2023-04-24T12:50:10;17.10;99.90
19966;DHT22;10144;50.874;4.762;2023-04-24T12:52:36;17.50;99.90
19966;DHT22;10144;50.874;4.762;2023-04-24T12:55:03;17.40;99.90
19966;DHT22;10144;50.874;4.762;2023-04-24T12:57:30;17.60;99.90
19966;DHT22;10144;50.874;4.762;2023-04-24T12:59:58;17.30;99.90
19966;DHT22;10144;50.874;4.762;2023-04-24T13:02:25;16.20;99.90
19966;DHT22;10144;50.874;4.762;2023-04-24T13:04:52;16.40;99.90
19966;DHT22;10144;50.874;4.762;2023-04-24T13:07:18;16.20;99.90
19966;DHT22;10144;50.874;4.762;2023-04-24T13:09:44;15.90;99.90
19966;DHT22;10144;50.874;4.762;2023-04-24T13:12:11;15.80;99.90
19966;DHT22;10144;50.874;4.762;2023-04-24T13:14:37;15.90;99.90
19966;DHT22;10144;50.874;4.762;2023-04-24T13:17:03;16.20;99.90
19966;DHT22;10144;50.874;4.762;2023-04-24T13:19:29;16.40;99.90
19966;DHT22;10144;50.874;4.762;2023-04-24T13:21:56;16.30;99.90
19966;DHT22;10144;50.874;4.762;2023-04-24T13:24:25;15.70;99.90
19966;DHT22;10144;50.874;4.762;2023-04-24T13:26:54;15.10;99.90
19966;DHT22;10144;50.874;4.762;2023-04-24T13:29:22;14.20;99.90
19966;DHT22;10144;50.874;4.762;2023-04-24T13:31:50;13.80;99.90
19966;DHT22;10144;50.874;4.762;2023-04-24T13:34:17;13.50;99.90
19966;DHT22;10144;50.874;4.762;2023-04-24T13:36:42;13.30;99.90
19966;DHT22;10144;50.874;4.762;2023-04-24T13:39:08;13.60;99.90
19966;DHT22;10144;50.874;4.762;2023-04-24T13:41:34;13.80;99.90
19966;DHT22;10144;50.874;4.762;2023-04-24T13:44:00;14.10;99.90
19966;DHT22;10144;50.874;4.762;2023-04-24T13:46:26;14.20;99.90
19966;DHT22;10144;50.874;4.762;2023-04-24T13:48:52;14.60;99.90
19966;DHT22;10144;50.874;4.762;2023-04-24T13:51:18;14.80;99.90
19966;DHT22;10144;50.874;4.762;2023-04-24T13:53:43;14.90;99.90
19966;DHT22;10144;50.874;4.762;2023-04-24T13:56:09;15.00;99.90
19966;DHT22;10144;50.874;4.762;2023-04-24T13:58:35;15.00;99.90
19966;DHT22;10144;50.874;4.762;2023-04-24T14:01:02;15.00;99.90
19966;DHT22;10144;50.874;4.762;2023-04-24T14:03:29;15.00;99.90
19966;DHT22;10144;50.874;4.762;2023-04-24T14:05:55;15.20;99.90
19966;DHT22;10144;50.874;4.762;2023-04-24T14:08:21;15.30;99.90
19966;DHT22;10144;50.874;4.762;2023-04-24T14:10:46;15.20;99.90
19966;DHT22;10144;50.874;4.762;2023-04-24T14:13:12;14.70;99.90
19966;DHT22;10144;50.874;4.762;2023-04-24T14:15:38;14.20;99.90
19966;DHT22;10144;50.874;4.762;2023-04-24T14:18:04;14.00;99.90
19966;DHT22;10144;50.874;4.762;2023-04-24T14:20:30;13.90;99.90
19966;DHT22;10144;50.874;4.762;2023-04-24T14:22:56;13.90;99.90
19966;DHT22;10144;50.874;4.762;2023-04-24T14:25:24;13.90;99.90
19966;DHT22;10144;50.874;4.762;2023-04-24T14:27:50;13.60;99.90
19966;DHT22;10144;50.874;4.762;2023-04-24T14:30:17;13.70;99.90
19966;DHT22;10144;50.874;4.762;2023-04-24T14:32:43;14.00;99.90
19966;DHT22;10144;50.874;4.762;2023-04-24T14:35:09;14.00;99.90
19966;DHT22;10144;50.874;4.762;2023-04-24T14:37:35;13.80;99.90
19966;DHT22;10144;50.874;4.762;2023-04-24T14:40:01;13.90;99.90
19966;DHT22;10144;50.874;4.762;2023-04-24T14:42:28;14.50;99.90
19966;DHT22;10144;50.874;4.762;2023-04-24T14:44:54;14.70;99.90
19966;DHT22;10144;50.874;4.762;2023-04-24T14:47:20;14.70;99.90
19966;DHT22;10144;50.874;4.762;2023-04-24T14:49:50;14.80;99.90
19966;DHT22;10144;50.874;4.762;2023-04-24T14:52:15;14.50;99.90
19966;DHT22;10144;50.874;4.762;2023-04-24T14:54:42;14.20;99.90
19966;DHT22;10144;50.874;4.762;2023-04-24T14:57:08;13.80;99.90
19966;DHT22;10144;50.874;4.762;2023-04-24T14:59:34;13.40;99.90
19966;DHT22;10144;50.874;4.762;2023-04-24T15:02:00;13.50;99.90
19966;DHT22;10144;50.874;4.762;2023-04-24T15:04:26;13.70;99.90
19966;DHT22;10144;50.874;4.762;2023-04-24T15:06:52;13.40;99.90
19966;DHT22;10144;50.874;4.762;2023-04-24T15:09:22;13.20;99.90
19966;DHT22;10144;50.874;4.762;2023-04-24T15:11:48;13.00;99.90
19966;DHT22;10144;50.874;4.762;2023-04-24T15:14:15;12.70;99.90
19966;DHT22;10144;50.874;4.762;2023-04-24T15:16:41;12.50;99.90
19966;DHT22;10144;50.874;4.762;2023-04-24T15:19:06;12.30;99.90
19966;DHT22;10144;50.874;4.762;2023-04-24T15:21:32;12.30;99.90
19966;DHT22;10144;50.874;4.762;2023-04-24T15:23:58;12.30;99.90
19966;DHT22;10144;50.874;4.762;2023-04-24T15:26:24;12.60;99.90
19966;DHT22;10144;50.874;4.762;2023-04-24T15:28:51;12.70;99.90
19966;DHT22;10144;50.874;4.762;2023-04-24T15:31:18;12.50;99.90
19966;DHT22;10144;50.874;4.762;2023-04-24T15:33:44;12.50;99.90
19966;DHT22;10144;50.874;4.762;2023-04-24T15:36:09;12.50;99.90
19966;DHT22;10144;50.874;4.762;2023-04-24T15:38:35;12.70;99.90
19966;DHT22;10144;50.874;4.762;2023-04-24T15:41:02;12.90;99.90
19966;DHT22;10144;50.874;4.762;2023-04-24T15:43:30;12.80;99.90
19966;DHT22;10144;50.874;4.762;2023-04-24T15:45:59;12.80;99.90
19966;DHT22;10144;50.874;4.762;2023-04-24T15:48:25;12.70;99.90
19966;DHT22;10144;50.874;4.762;2023-04-24T15:50:50;12.60;99.90
19966;DHT22;10144;50.874;4.762;2023-04-24T15:53:16;12.50;99.90
19966;DHT22;10144;50.874;4.762;2023-04-24T15:55:48;12.40;99.90
19966;DHT22;10144;50.874;4.762;2023-04-24T15:58:15;12.40;99.90
19966;DHT22;10144;50.874;4.762;2023-04-24T16:00:40;12.40;99.90
19966;DHT22;10144;50.874;4.762;2023-04-24T16:03:06;12.50;99.90
19966;DHT22;10144;50.874;4.762;2023-04-24T16:05:32;12.70;99.90
19966;DHT22;10144;50.874;4.762;2023-04-24T16:07:58;12.70;99.90
19966;DHT22;10144;50.874;4.762;2023-04-24T16:10:24;12.60;99.90
19966;DHT22;10144;50.874;4.762;2023-04-24T16:12:49;12.70;99.90
19966;DHT22;10144;50.874;4.762;2023-04-24T16:15:19;12.50;99.90
19966;DHT22;10144;50.874;4.762;2023-04-24T16:17:45;12.50;99.90
19966;DHT22;10144;50.874;4.762;2023-04-24T16:20:12;12.40;99.90
19966;DHT22;10144;50.874;4.762;2023-04-24T16:22:39;12.40;99.90
19966;DHT22;10144;50.874;4.762;2023-04-24T16:25:06;12.20;99.90
19966;DHT22;10144;50.874;4.762;2023-04-24T16:27:32;12.30;99.90
19966;DHT22;10144;50.874;4.762;2023-04-24T16:29:58;12.30;99.90
19966;DHT22;10144;50.874;4.762;2023-04-24T16:32:24;12.30;99.90
19966;DHT22;10144;50.874;4.762;2023-04-24T16:34:50;12.50;99.90
19966;DHT22;10144;50.874;4.762;2023-04-24T16:37:16;12.40;99.90
19966;DHT22;10144;50.874;4.762;2023-04-24T16:39:42;12.30;99.90
19966;DHT22;10144;50.874;4.762;2023-04-24T16:42:14;12.30;99.90
19966;DHT22;10144;50.874;4.762;2023-04-24T16:44:41;12.10;99.90
19966;DHT22;10144;50.874;4.762;2023-04-24T16:47:08;11.90;99.90